Time;durP1;ratioP1;P1;durP2;ratioP2;P2;SDS_P1;SDS_P2;PMS_P1;PMS_P2;Temp;Humidity;BMP_temperature;BMP_pressure;BME280_temperature;BME280_humidity;BME280_pressure;Samples;Min_cycle;Max_cycle;Signal;HPM_P1;HPM_P2
2021/01/21 00:00:36;;;;;;;9.68;6.63;;;4.60;91.30;;;;;;4991088;28;20112;-56
2021/01/21 00:03:02;;;;;;;11.43;6.22;;;4.50;91.30;;;;;;4978976;28;20027;-56
2021/01/21 00:05:27;;;;;;;9.35;6.28;;;4.50;91.30;;;;;;4980175;28;20035;-56
2021/01/21 00:07:53;;;;;;;10.25;6.40;;;4.50;91.30;;;;;;4988406;28;20543;-56
2021/01/21 00:10:18;;;;;;;12.50;6.57;;;4.50;91.30;;;;;;4973228;28;20036;-56
2021/01/21 00:12:44;;;;;;;12.07;6.97;;;4.60;91.30;;;;;;4990932;28;20030;-55
2021/01/21 00:15:09;;;;;;;9.80;6.50;;;4.50;91.30;;;;;;4986547;28;20371;-56
2021/01/21 00:17:35;;;;;;;12.10;7.00;;;4.60;91.30;;;;;;4990814;28;20027;-56
2021/01/21 00:20:00;;;;;;;10.75;6.22;;;4.50;91.30;;;;;;4972164;28;20533;-56
2021/01/21 00:22:26;;;;;;;12.18;6.50;;;4.50;91.30;;;;;;4983448;28;20070;-56
2021/01/21 00:24:51;;;;;;;12.13;6.35;;;4.50;91.30;;;;;;4985832;28;20034;-56
2021/01/21 00:27:17;;;;;;;10.45;6.38;;;4.50;91.20;;;;;;4990617;28;20033;-56
2021/01/21 00:29:42;;;;;;;11.45;6.18;;;4.50;91.20;;;;;;4987300;28;20049;-56
2021/01/21 00:32:08;;;;;;;9.90;6.25;;;4.50;91.20;;;;;;4990108;28;20528;-56
2021/01/21 00:34:33;;;;;;;10.32;6.38;;;4.60;91.30;;;;;;4988932;28;20089;-56
2021/01/21 00:36:59;;;;;;;11.80;6.40;;;4.50;91.30;;;;;;4981598;28;20065;-56
2021/01/21 00:39:25;;;;;;;10.02;6.40;;;4.50;91.30;;;;;;4990776;28;20034;-56
2021/01/21 00:41:51;;;;;;;9.07;5.75;;;4.50;91.30;;;;;;4972111;28;20026;-57
2021/01/21 00:44:16;;;;;;;11.02;6.15;;;4.50;91.30;;;;;;4980065;28;20054;-55
2021/01/21 00:46:41;;;;;;;9.60;6.20;;;4.60;91.30;;;;;;4986384;28;20041;-56
2021/01/21 00:49:07;;;;;;;10.32;6.80;;;4.50;91.30;;;;;;4977430;28;20035;-56
2021/01/21 00:51:32;;;;;;;11.75;7.65;;;4.50;91.30;;;;;;4989973;28;20030;-56
2021/01/21 00:53:58;;;;;;;9.98;6.60;;;4.50;91.30;;;;;;4989746;28;20030;-56
2021/01/21 00:56:24;;;;;;;11.43;5.88;;;4.50;91.30;;;;;;4987973;28;20435;-56
2021/01/21 00:58:49;;;;;;;11.77;6.40;;;4.50;91.30;;;;;;4989992;28;20093;-56
2021/01/21 01:01:14;;;;;;;8.60;5.70;;;4.50;91.40;;;;;;4988880;28;20041;-56
2021/01/21 01:03:40;;;;;;;11.10;5.82;;;4.50;91.40;;;;;;4990110;28;20026;-56
2021/01/21 01:06:07;;;;;;;13.40;6.45;;;4.50;91.40;;;;;;4969382;28;20463;-56
2021/01/21 01:08:33;;;;;;;8.60;5.93;;;4.50;91.40;;;;;;4984629;28;20030;-56
2021/01/21 01:10:58;;;;;;;9.88;6.13;;;4.50;91.30;;;;;;4988761;28;20056;-56
2021/01/21 01:13:24;;;;;;;10.73;6.68;;;4.50;91.30;;;;;;4987143;28;20046;-56
2021/01/21 01:15:49;;;;;;;9.02;5.78;;;4.50;91.40;;;;;;4979170;28;20092;-56
2021/01/21 01:18:15;;;;;;;9.52;5.80;;;4.50;91.30;;;;;;4993762;28;20552;-56
2021/01/21 01:20:40;;;;;;;8.45;5.35;;;4.50;91.30;;;;;;4991659;28;20092;-56
2021/01/21 01:23:06;;;;;;;12.00;5.72;;;4.50;91.40;;;;;;4994620;28;20038;-56
2021/01/21 01:25:33;;;;;;;11.02;6.38;;;4.50;91.40;;;;;;4975231;28;20026;-56
2021/01/21 01:27:58;;;;;;;8.57;5.68;;;4.40;91.40;;;;;;4991977;28;20038;-56
2021/01/21 01:30:24;;;;;;;9.75;5.78;;;4.40;91.70;;;;;;4992624;28;20036;-56
2021/01/21 01:32:49;;;;;;;8.95;6.03;;;4.40;91.40;;;;;;4983634;28;20041;-56
2021/01/21 01:35:15;;;;;;;8.20;5.43;;;4.40;91.40;;;;;;4989007;28;20065;-56
2021/01/21 01:37:42;;;;;;;10.85;5.53;;;4.50;91.40;;;;;;4986066;28;20526;-56
2021/01/21 01:40:08;;;;;;;10.30;5.60;;;4.40;91.40;;;;;;4987099;28;20043;-56
2021/01/21 01:42:34;;;;;;;10.63;6.28;;;4.40;91.40;;;;;;4974688;28;20058;-56
2021/01/21 01:44:59;;;;;;;8.15;5.25;;;4.40;91.40;;;;;;4971121;28;20457;-56
2021/01/21 01:47:25;;;;;;;10.02;5.63;;;4.40;91.40;;;;;;4978137;28;20518;-56
2021/01/21 01:49:51;;;;;;;8.23;5.10;;;4.40;91.40;;;;;;4956422;28;20027;-56
2021/01/21 01:52:17;;;;;;;8.10;5.45;;;4.40;91.30;;;;;;4961541;28;20058;-56
2021/01/21 01:54:42;;;;;;;10.05;5.82;;;4.40;91.40;;;;;;4975077;28;20061;-56
2021/01/21 01:57:08;;;;;;;9.27;5.78;;;4.40;91.40;;;;;;4980680;28;20022;-56
2021/01/21 01:59:34;;;;;;;7.55;5.45;;;4.40;91.30;;;;;;4982930;28;20035;-56
2021/01/21 02:01:59;;;;;;;9.18;5.82;;;4.40;91.30;;;;;;4975097;28;20150;-56
2021/01/21 02:04:25;;;;;;;8.73;6.00;;;4.40;91.30;;;;;;4972132;28;20047;-56
2021/01/21 02:06:50;;;;;;;7.82;5.40;;;4.40;91.30;;;;;;4972242;28;20128;-56
2021/01/21 02:09:16;;;;;;;11.30;6.22;;;4.40;91.30;;;;;;4959684;28;20077;-56
2021/01/21 02:11:47;;;;;;;7.70;5.82;;;4.40;91.30;;;;;;4990601;28;20080;-56
2021/01/21 02:14:41;;;;;;;7.95;5.47;;;4.40;91.30;;;;;;4959559;28;20027;-56
2021/01/21 02:17:08;;;;;;;8.93;5.75;;;4.40;91.30;;;;;;4971783;28;20018;-56
2021/01/21 02:19:56;;;;;;;8.80;5.53;;;4.40;91.30;;;;;;4955339;28;20160;-56
2021/01/21 02:22:40;;;;;;;8.63;6.03;;;4.40;91.30;;;;;;4972840;28;20110;-57
2021/01/21 02:25:10;;;;;;;8.82;5.82;;;4.40;91.30;;;;;;4983720;28;20033;-56
2021/01/21 02:28:03;;;;;;;11.57;5.65;;;4.40;91.30;;;;;;4974293;28;20061;-56
2021/01/21 02:30:34;;;;;;;9.27;5.47;;;4.40;91.30;;;;;;4970420;28;20509;-56
2021/01/21 02:33:04;;;;;;;8.52;5.88;;;4.40;91.30;;;;;;4971351;28;20126;-56
2021/01/21 02:35:30;;;;;;;7.82;5.22;;;4.40;91.30;;;;;;4979860;28;20085;-55
2021/01/21 02:37:56;;;;;;;10.15;5.88;;;4.40;91.30;;;;;;4972993;28;20054;-56
2021/01/21 02:40:22;;;;;;;11.15;5.55;;;4.30;91.30;;;;;;4957340;28;20030;-56
2021/01/21 02:42:48;;;;;;;7.60;5.25;;;4.40;91.40;;;;;;4973393;28;20019;-56
2021/01/21 02:45:14;;;;;;;7.30;5.30;;;4.40;91.40;;;;;;4976118;28;20066;-55
2021/01/21 02:47:39;;;;;;;8.82;5.65;;;4.30;91.40;;;;;;4976614;28;20050;-56
2021/01/21 02:50:06;;;;;;;8.93;5.65;;;4.40;91.40;;;;;;4979518;28;20034;-56
2021/01/21 02:52:47;;;;;;;8.23;5.03;;;4.40;91.40;;;;;;4966168;28;20164;-55
2021/01/21 02:55:37;;;;;;;9.20;5.38;;;4.40;91.40;;;;;;4979106;28;20043;-56
2021/01/21 02:58:05;;;;;;;7.30;5.57;;;4.30;91.40;;;;;;4959291;28;20038;-56
2021/01/21 03:00:32;;;;;;;9.55;5.13;;;4.40;91.50;;;;;;4963244;28;20026;-56
2021/01/21 03:02:59;;;;;;;8.13;5.22;;;4.40;91.50;;;;;;4977785;28;20019;-56
2021/01/21 03:05:24;;;;;;;8.40;5.10;;;4.40;91.40;;;;;;4976829;28;20022;-57
2021/01/21 03:07:50;;;;;;;11.05;5.60;;;4.30;91.50;;;;;;4961809;28;20027;-56
2021/01/21 03:10:19;;;;;;;10.50;5.22;;;4.30;91.50;;;;;;4957937;28;20307;-56
2021/01/21 03:12:57;;;;;;;10.02;5.47;;;4.40;91.50;;;;;;4973853;28;20110;-56
2021/01/21 03:15:25;;;;;;;9.48;5.00;;;4.30;91.40;;;;;;4977437;28;20037;-55
2021/01/21 03:17:51;;;;;;;7.93;5.20;;;4.30;91.40;;;;;;4977509;28;20077;-55
2021/01/21 03:20:17;;;;;;;6.70;4.93;;;4.40;91.50;;;;;;4978183;28;20488;-56
2021/01/21 03:22:42;;;;;;;8.07;5.30;;;4.30;91.50;;;;;;4978845;28;20049;-56
2021/01/21 03:25:09;;;;;;;8.57;5.30;;;4.30;91.50;;;;;;4976171;28;20226;-56
2021/01/21 03:27:34;;;;;;;8.93;5.45;;;4.30;91.50;;;;;;4955943;28;20042;-56
2021/01/21 03:30:00;;;;;;;8.05;4.68;;;4.30;91.50;;;;;;4964172;28;20049;-55
2021/01/21 03:32:25;;;;;;;7.28;5.00;;;4.20;91.40;;;;;;4975366;28;20031;-56
2021/01/21 03:34:51;;;;;;;9.25;5.45;;;4.30;91.40;;;;;;4979078;28;20053;-55
2021/01/21 03:37:16;;;;;;;7.78;5.30;;;4.30;91.40;;;;;;4974399;28;20054;-56
2021/01/21 03:39:42;;;;;;;7.80;4.93;;;4.30;91.50;;;;;;4979042;28;20398;-56
2021/01/21 03:42:07;;;;;;;7.70;5.55;;;4.30;91.50;;;;;;4970145;28;20513;-57
2021/01/21 03:44:33;;;;;;;8.82;5.20;;;4.30;91.50;;;;;;4961926;28;20038;-56
2021/01/21 03:46:58;;;;;;;7.25;5.03;;;4.40;91.50;;;;;;4977056;28;20038;-56
2021/01/21 03:49:24;;;;;;;8.00;5.45;;;4.10;91.40;;;;;;4976071;28;20030;-56
2021/01/21 03:51:49;;;;;;;7.60;5.22;;;4.50;91.50;;;;;;4971675;28;20129;-56
2021/01/21 03:54:15;;;;;;;9.00;5.75;;;4.30;91.50;;;;;;4981707;28;20489;-56
2021/01/21 03:56:40;;;;;;;9.70;5.40;;;4.30;91.50;;;;;;4976622;28;20034;-55
2021/01/21 03:59:06;;;;;;;10.80;5.78;;;4.40;91.50;;;;;;4978091;28;20462;-55
2021/01/21 04:01:31;;;;;;;6.68;5.07;;;4.30;91.50;;;;;;4975679;28;20438;-56
2021/01/21 04:03:57;;;;;;;8.18;5.20;;;4.30;91.50;;;;;;4976103;28;20514;-56
2021/01/21 04:06:22;;;;;;;8.85;4.72;;;4.40;91.50;;;;;;4977450;28;20043;-56
2021/01/21 04:08:48;;;;;;;5.90;4.53;;;4.30;91.50;;;;;;4980694;28;20026;-55
2021/01/21 04:11:13;;;;;;;9.40;4.97;;;4.30;91.50;;;;;;4977810;28;20045;-56
2021/01/21 04:13:39;;;;;;;8.18;4.72;;;4.40;91.50;;;;;;4959925;28;20037;-56
2021/01/21 04:16:05;;;;;;;7.55;5.18;;;4.30;91.50;;;;;;4975241;28;20031;-56
2021/01/21 04:18:30;;;;;;;7.97;5.05;;;4.30;91.50;;;;;;4976399;28;20113;-56
2021/01/21 04:20:56;;;;;;;7.88;5.28;;;4.30;91.50;;;;;;4970141;28;20519;-56
2021/01/21 04:23:21;;;;;;;8.40;4.93;;;4.30;91.50;;;;;;4984710;28;20038;-56
2021/01/21 04:25:47;;;;;;;9.10;5.40;;;4.30;91.50;;;;;;4977152;28;20077;-56
2021/01/21 04:28:12;;;;;;;6.97;5.07;;;4.20;91.50;;;;;;4976777;28;20030;-55
2021/01/21 04:30:38;;;;;;;8.10;5.10;;;4.30;91.60;;;;;;4983270;28;20030;-56
2021/01/21 04:33:03;;;;;;;6.55;4.80;;;4.30;91.50;;;;;;4981865;28;20037;-56
2021/01/21 04:35:29;;;;;;;6.82;5.03;;;4.30;91.60;;;;;;4982810;28;20063;-56
2021/01/21 04:37:54;;;;;;;7.50;5.25;;;4.30;91.60;;;;;;4980965;28;20046;-57
2021/01/21 04:40:20;;;;;;;7.32;5.68;;;4.20;91.60;;;;;;4986602;28;20028;-56
2021/01/21 04:42:46;;;;;;;8.77;4.80;;;4.30;91.60;;;;;;4980533;28;20031;-56
2021/01/21 04:45:12;;;;;;;7.80;5.40;;;4.20;91.60;;;;;;4980489;28;20026;-56
2021/01/21 04:47:37;;;;;;;6.80;4.90;;;4.20;91.60;;;;;;4984024;28;20027;-56
2021/01/21 04:50:04;;;;;;;8.57;5.53;;;4.20;91.60;;;;;;4985852;28;20497;-57
2021/01/21 04:52:31;;;;;;;7.03;4.78;;;4.20;91.60;;;;;;4971147;28;20035;-56
2021/01/21 04:55:02;;;;;;;8.73;5.25;;;4.20;91.60;;;;;;4987913;28;20474;-55
2021/01/21 04:58:17;;;;;;;7.95;4.53;;;4.20;91.60;;;;;;4976691;28;20058;-57
2021/01/21 05:00:43;;;;;;;9.23;5.15;;;4.30;91.60;;;;;;4973678;28;20058;-56
2021/01/21 05:03:09;;;;;;;7.47;5.00;;;4.20;91.60;;;;;;4991449;28;20105;-56
2021/01/21 05:05:34;;;;;;;7.13;5.07;;;4.30;91.60;;;;;;4986713;28;20106;-56
2021/01/21 05:08:01;;;;;;;8.27;5.25;;;4.30;91.60;;;;;;4988227;28;20042;-56
2021/01/21 05:10:27;;;;;;;7.75;5.25;;;4.30;91.90;;;;;;4977434;28;20033;-56
2021/01/21 05:12:52;;;;;;;6.22;4.70;;;4.20;91.50;;;;;;4990555;28;20026;-57
2021/01/21 05:15:18;;;;;;;7.18;4.85;;;4.30;91.80;;;;;;4987543;28;20105;-56
2021/01/21 05:17:43;;;;;;;6.78;4.57;;;4.20;91.50;;;;;;4993480;28;20033;-56
2021/01/21 05:20:09;;;;;;;7.93;5.53;;;4.30;91.50;;;;;;4991575;28;20137;-56
2021/01/21 05:22:35;;;;;;;7.65;5.82;;;4.20;91.50;;;;;;4992702;28;20042;-56
2021/01/21 05:25:01;;;;;;;8.05;5.35;;;4.20;91.50;;;;;;4976301;28;20023;-56
2021/01/21 05:27:26;;;;;;;8.00;5.18;;;4.20;91.50;;;;;;4994134;28;20030;-57
2021/01/21 05:29:52;;;;;;;8.35;4.88;;;4.30;91.60;;;;;;4992441;28;20042;-56
2021/01/21 05:32:18;;;;;;;5.95;4.55;;;4.30;91.60;;;;;;4992453;28;20026;-56
2021/01/21 05:34:44;;;;;;;7.75;5.30;;;4.30;91.60;;;;;;4989771;28;20050;-56
2021/01/21 05:37:10;;;;;;;8.13;5.00;;;4.30;91.60;;;;;;4982984;28;20081;-56
2021/01/21 05:39:46;;;;;;;6.65;5.00;;;4.30;91.60;;;;;;4988984;28;20031;-56
2021/01/21 05:42:11;;;;;;;8.43;5.60;;;4.20;91.50;;;;;;4990491;28;20026;-56
2021/01/21 05:44:37;;;;;;;6.07;4.90;;;4.30;91.60;;;;;;4993557;28;20085;-56
2021/01/21 05:47:03;;;;;;;7.30;5.70;;;4.30;91.50;;;;;;4991988;28;20044;-56
2021/01/21 05:49:29;;;;;;;7.30;5.10;;;4.30;91.50;;;;;;4978180;28;20027;-56
2021/01/21 05:51:58;;;;;;;8.95;5.15;;;4.30;91.50;;;;;;4993432;28;20470;-56
2021/01/21 05:54:24;;;;;;;6.82;4.70;;;4.30;91.50;;;;;;4975045;28;20077;-57
2021/01/21 05:56:54;;;;;;;6.93;4.78;;;4.20;91.50;;;;;;4985186;28;20110;-56
2021/01/21 05:59:20;;;;;;;8.35;5.50;;;4.30;91.50;;;;;;4955949;28;20018;-57
2021/01/21 06:01:46;;;;;;;7.40;5.10;;;4.30;91.50;;;;;;4982682;28;20042;-56
2021/01/21 06:04:12;;;;;;;9.60;5.25;;;4.30;91.50;;;;;;4983041;28;20385;-56
2021/01/21 06:06:39;;;;;;;6.45;4.57;;;4.30;91.60;;;;;;4991930;28;20494;-56
2021/01/21 06:09:05;;;;;;;8.85;5.07;;;4.20;91.60;;;;;;4962911;28;20034;-56
2021/01/21 06:11:31;;;;;;;6.47;5.10;;;4.20;91.50;;;;;;4991151;28;20367;-57
2021/01/21 06:13:56;;;;;;;6.47;4.82;;;4.20;91.50;;;;;;4991604;28;20089;-56
2021/01/21 06:16:22;;;;;;;6.68;4.63;;;4.20;91.50;;;;;;4991677;28;20478;-55
2021/01/21 06:18:48;;;;;;;8.00;5.07;;;4.30;91.50;;;;;;4959247;28;20027;-56
2021/01/21 06:21:13;;;;;;;7.15;5.00;;;4.20;91.50;;;;;;4973844;28;20031;-56
2021/01/21 06:23:39;;;;;;;7.40;5.10;;;4.20;91.50;;;;;;4957614;28;20026;-56
2021/01/21 06:26:04;;;;;;;8.13;4.90;;;4.20;91.50;;;;;;4981995;28;20061;-56
2021/01/21 06:28:30;;;;;;;6.85;4.47;;;4.30;91.50;;;;;;4967413;28;20486;-55
2021/01/21 06:30:59;;;;;;;7.40;5.32;;;4.20;91.50;;;;;;4989425;28;20033;-56
2021/01/21 06:33:33;;;;;;;7.47;4.95;;;4.30;91.50;;;;;;4987786;28;20050;-57
2021/01/21 06:36:08;;;;;;;8.85;5.13;;;4.20;91.50;;;;;;4977052;28;20406;-55
2021/01/21 06:38:40;;;;;;;7.40;5.28;;;4.30;91.50;;;;;;4990668;28;20390;-56
2021/01/21 06:41:14;;;;;;;6.80;4.93;;;4.30;91.50;;;;;;4990193;28;20033;-55
2021/01/21 06:43:40;;;;;;;8.57;5.38;;;4.20;91.50;;;;;;4985885;28;20483;-58
2021/01/21 06:46:09;;;;;;;7.35;4.93;;;4.30;91.50;;;;;;4981404;28;20029;-56
2021/01/21 06:48:34;;;;;;;6.70;5.20;;;4.20;91.50;;;;;;4992770;28;20022;-56
2021/01/21 06:51:10;;;;;;;6.95;5.28;;;4.20;91.50;;;;;;4973557;28;20037;-56
2021/01/21 06:53:35;;;;;;;6.38;4.97;;;4.30;91.50;;;;;;4986248;28;20061;-56
2021/01/21 06:56:01;;;;;;;6.13;5.20;;;4.20;91.50;;;;;;4964469;28;20047;-56
2021/01/21 06:58:49;;;;;;;7.20;5.05;;;4.30;91.50;;;;;;4991606;28;20084;-56
2021/01/21 07:01:32;;;;;;;6.88;5.03;;;4.30;91.50;;;;;;4980604;28;20709;-56
2021/01/21 07:04:04;;;;;;;7.32;4.68;;;4.30;91.50;;;;;;4986017;28;20044;-56
2021/01/21 07:06:52;;;;;;;7.18;4.97;;;4.20;91.50;;;;;;4988158;28;20483;-56
2021/01/21 07:09:26;;;;;;;7.20;4.63;;;4.20;91.50;;;;;;4991435;28;20022;-56
2021/01/21 07:11:54;;;;;;;5.65;4.40;;;4.20;91.50;;;;;;4990313;28;20378;-56
2021/01/21 07:14:20;;;;;;;7.60;5.03;;;4.30;91.50;;;;;;4990432;28;20177;-56
2021/01/21 07:17:02;;;;;;;7.18;4.88;;;4.20;91.50;;;;;;4990139;28;20033;-56
2021/01/21 07:19:29;;;;;;;7.10;4.57;;;4.30;91.50;;;;;;4984670;28;20034;-56
2021/01/21 07:21:55;;;;;;;7.60;4.93;;;4.30;91.50;;;;;;4981691;28;20031;-56
2021/01/21 07:24:26;;;;;;;7.05;4.78;;;4.20;91.50;;;;;;4989978;28;20019;-56
2021/01/21 07:26:52;;;;;;;7.72;4.78;;;4.30;91.60;;;;;;4987373;28;20433;-56
2021/01/21 07:29:19;;;;;;;7.93;4.97;;;4.30;91.60;;;;;;4989671;28;20026;-56
2021/01/21 07:31:56;;;;;;;6.97;4.85;;;4.20;91.60;;;;;;4983957;28;20057;-56
2021/01/21 07:34:27;;;;;;;7.57;5.03;;;4.30;91.50;;;;;;4985176;28;20552;-55
2021/01/21 07:37:22;;;;;;;5.97;4.75;;;4.30;91.50;;;;;;4981007;28;20120;-56
2021/01/21 07:40:01;;;;;;;7.55;5.00;;;4.30;91.50;;;;;;4980885;28;20019;-56
2021/01/21 07:42:33;;;;;;;7.30;4.53;;;4.30;91.50;;;;;;4984358;28;20081;-56
2021/01/21 07:45:15;;;;;;;8.05;5.55;;;4.30;91.50;;;;;;4976693;28;20044;-57
2021/01/21 07:47:41;;;;;;;8.50;4.45;;;4.30;91.40;;;;;;4983112;28;20042;-60
2021/01/21 07:50:21;;;;;;;11.43;5.28;;;4.40;91.40;;;;;;4965868;28;20035;-56
2021/01/21 07:52:47;;;;;;;9.50;4.95;;;4.40;91.40;;;;;;4981140;28;20474;-56
2021/01/21 07:55:12;;;;;;;10.75;4.80;;;4.40;91.40;;;;;;4982900;28;20040;-56
2021/01/21 07:57:38;;;;;;;10.25;4.63;;;4.40;91.40;;;;;;4987426;28;20129;-56
2021/01/21 08:00:08;;;;;;;12.88;4.57;;;4.40;91.30;;;;;;4990003;28;20101;-56
2021/01/21 08:02:50;;;;;;;8.48;5.00;;;4.40;91.30;;;;;;4989588;28;20044;-56
2021/01/21 08:05:17;;;;;;;13.30;5.03;;;4.40;91.30;;;;;;4969510;28;20394;-56
2021/01/21 08:07:44;;;;;;;11.30;5.25;;;4.50;91.30;;;;;;4980817;28;20960;-56
2021/01/21 08:10:10;;;;;;;9.82;4.68;;;4.50;91.30;;;;;;4950432;28;20069;-55
2021/01/21 08:12:35;;;;;;;10.00;5.00;;;4.50;91.30;;;;;;4983448;28;20065;-57
2021/01/21 08:15:02;;;;;;;12.43;4.80;;;4.50;91.30;;;;;;4943901;28;20152;-57
2021/01/21 08:17:28;;;;;;;11.10;4.25;;;4.50;91.30;;;;;;4982854;28;20483;-56
2021/01/21 08:19:54;;;;;;;15.45;5.07;;;4.50;91.30;;;;;;4974429;28;20050;-56
2021/01/21 08:22:19;;;;;;;6.63;4.45;;;4.50;91.50;;;;;;4981832;28;20038;-57
2021/01/21 08:25:00;;;;;;;8.05;4.75;;;4.50;91.20;;;;;;4967210;28;20050;-56
2021/01/21 08:27:45;;;;;;;8.77;4.28;;;4.50;91.20;;;;;;4971752;28;20042;-59
2021/01/21 08:30:23;;;;;;;9.13;4.38;;;4.60;91.30;;;;;;4986433;28;20493;-56
2021/01/21 08:32:52;;;;;;;9.50;3.92;;;4.60;91.20;;;;;;4978111;28;20035;-56
2021/01/21 08:35:23;;;;;;;7.63;3.92;;;4.60;91.20;;;;;;4971140;28;20394;-56
2021/01/21 08:37:49;;;;;;;10.40;4.32;;;4.60;91.10;;;;;;4966125;28;20179;-56
2021/01/21 08:40:15;;;;;;;11.35;4.28;;;4.70;91.20;;;;;;4981604;28;20493;-56
2021/01/21 08:42:41;;;;;;;9.30;3.60;;;4.70;91.10;;;;;;4953172;28;20062;-56
2021/01/21 08:45:06;;;;;;;10.18;3.95;;;4.70;91.10;;;;;;4973655;28;20176;-57
2021/01/21 08:47:43;;;;;;;10.10;4.35;;;4.70;91.10;;;;;;4984005;28;20123;-59
2021/01/21 08:50:09;;;;;;;11.43;4.00;;;4.70;91.10;;;;;;4978095;28;20113;-56
2021/01/21 08:52:34;;;;;;;8.93;4.32;;;4.70;91.10;;;;;;4955815;28;20058;-57
2021/01/21 08:55:00;;;;;;;8.48;3.80;;;4.80;91.10;;;;;;4987501;28;20084;-56
2021/01/21 08:57:25;;;;;;;13.00;3.90;;;4.70;91.00;;;;;;4980423;28;20090;-56
2021/01/21 08:59:51;;;;;;;8.40;4.43;;;4.80;91.10;;;;;;4968159;28;20103;-56
2021/01/21 09:02:39;;;;;;;9.68;4.78;;;4.80;91.00;;;;;;4984617;28;20086;-56
2021/01/21 09:05:05;;;;;;;9.30;4.07;;;4.80;91.00;;;;;;4974487;28;20537;-56
2021/01/21 09:07:31;;;;;;;9.60;4.03;;;4.80;91.00;;;;;;4982566;28;20470;-56
2021/01/21 09:10:13;;;;;;;10.60;3.90;;;4.80;91.00;;;;;;4989575;28;20038;-56
2021/01/21 09:12:39;;;;;;;9.38;3.78;;;4.90;91.00;;;;;;4976682;28;20041;-56
2021/01/21 09:15:14;;;;;;;9.73;4.22;;;4.90;91.00;;;;;;4984098;28;20038;-57
2021/01/21 09:17:40;;;;;;;15.75;3.88;;;4.90;91.00;;;;;;4986399;28;20035;-56
2021/01/21 09:20:21;;;;;;;8.65;3.42;;;4.90;91.00;;;;;;4981281;28;20037;-57
2021/01/21 09:22:49;;;;;;;13.00;4.10;;;5.00;91.00;;;;;;4970140;28;20084;-57
2021/01/21 09:25:14;;;;;;;15.85;4.15;;;5.00;91.00;;;;;;4989742;28;20367;-57
2021/01/21 09:27:40;;;;;;;10.10;3.53;;;5.00;90.90;;;;;;4986360;28;20085;-56
2021/01/21 09:30:06;;;;;;;18.15;4.60;;;5.00;91.00;;;;;;4954420;28;20328;-57
2021/01/21 09:32:36;;;;;;;17.38;5.75;;;5.00;91.00;;;;;;4983654;28;20049;-57
2021/01/21 09:35:05;;;;;;;18.73;4.35;;;5.10;91.10;;;;;;4964703;28;20042;-57
2021/01/21 09:37:33;;;;;;;13.63;4.25;;;5.10;91.00;;;;;;4987092;28;20498;-57
2021/01/21 09:39:59;;;;;;;16.85;4.18;;;5.20;91.10;;;;;;4969456;28;20057;-56
2021/01/21 09:42:24;;;;;;;20.23;3.83;;;5.20;91.00;;;;;;4987419;28;20053;-56
2021/01/21 09:44:50;;;;;;;22.48;4.90;;;5.20;91.00;;;;;;4986296;28;20062;-57
2021/01/21 09:47:16;;;;;;;13.13;4.32;;;5.20;91.00;;;;;;4984810;28;20027;-57
2021/01/21 09:49:42;;;;;;;7.97;3.40;;;5.30;90.90;;;;;;4983813;28;20045;-57
2021/01/21 09:52:08;;;;;;;12.90;3.63;;;5.30;90.90;;;;;;4980625;28;20031;-58
2021/01/21 09:54:33;;;;;;;16.55;3.40;;;5.30;90.90;;;;;;4991075;28;20034;-56
2021/01/21 09:56:59;;;;;;;11.95;4.00;;;5.30;90.90;;;;;;4989791;28;20030;-57
2021/01/21 09:59:24;;;;;;;10.02;3.85;;;5.30;90.90;;;;;;4976833;28;20026;-57
2021/01/21 10:01:50;;;;;;;13.63;3.55;;;5.30;90.80;;;;;;4980427;28;20037;-57
2021/01/21 10:04:15;;;;;;;12.13;3.22;;;5.30;90.80;;;;;;4990890;28;20026;-62
2021/01/21 10:06:41;;;;;;;15.60;3.03;;;5.30;90.80;;;;;;4957910;28;20456;-57
2021/01/21 10:09:07;;;;;;;18.90;3.30;;;5.40;90.80;;;;;;4984873;28;20130;-56
2021/01/21 10:11:32;;;;;;;17.35;4.50;;;5.40;90.80;;;;;;4985992;28;20034;-57
2021/01/21 10:13:58;;;;;;;12.60;4.03;;;5.40;90.80;;;;;;4991558;28;20035;-57
2021/01/21 10:16:23;;;;;;;13.02;3.30;;;5.40;90.80;;;;;;4984656;28;20081;-57
2021/01/21 10:18:49;;;;;;;15.35;3.10;;;5.40;90.70;;;;;;4985726;28;20025;-56
2021/01/21 10:21:14;;;;;;;10.23;3.63;;;5.40;90.70;;;;;;4983479;28;20031;-56
2021/01/21 10:23:40;;;;;;;12.65;3.42;;;5.40;90.70;;;;;;4979528;28;20027;-56
2021/01/21 10:26:05;;;;;;;10.65;3.00;;;5.50;90.70;;;;;;4979234;28;20384;-57
2021/01/21 10:28:31;;;;;;;9.35;2.88;;;5.50;90.70;;;;;;4985028;28;20084;-57
2021/01/21 10:30:56;;;;;;;6.28;3.00;;;5.50;90.70;;;;;;4984809;28;20046;-58
2021/01/21 10:33:22;;;;;;;8.18;2.85;;;5.50;90.70;;;;;;4978040;28;20023;-57
2021/01/21 10:35:47;;;;;;;10.48;2.67;;;5.50;90.70;;;;;;4988293;28;20061;-57
2021/01/21 10:38:13;;;;;;;11.57;3.65;;;5.50;90.60;;;;;;4986096;28;20026;-57
2021/01/21 10:40:39;;;;;;;11.73;3.45;;;5.50;90.60;;;;;;4986426;28;20022;-57
2021/01/21 10:43:05;;;;;;;8.43;2.85;;;5.60;90.60;;;;;;4974375;28;20049;-57
2021/01/21 10:45:30;;;;;;;8.77;3.03;;;5.60;90.60;;;;;;4984607;28;20565;-57
2021/01/21 10:47:56;;;;;;;15.02;3.70;;;5.60;90.60;;;;;;4989624;28;20038;-56
2021/01/21 10:50:21;;;;;;;11.80;2.70;;;5.70;90.60;;;;;;4990389;28;20052;-56
2021/01/21 10:52:47;;;;;;;6.55;2.47;;;5.70;90.60;;;;;;4984373;28;20445;-57
2021/01/21 10:55:12;;;;;;;6.88;2.72;;;5.70;90.50;;;;;;4979454;28;20470;-56
2021/01/21 10:57:38;;;;;;;7.40;2.90;;;5.70;90.50;;;;;;4988278;28;20046;-57
2021/01/21 11:00:04;;;;;;;6.82;2.72;;;5.70;90.50;;;;;;4990170;28;20073;-57
2021/01/21 11:02:30;;;;;;;6.72;2.97;;;5.70;90.40;;;;;;4990625;28;20101;-57
2021/01/21 11:04:55;;;;;;;11.68;3.15;;;5.80;90.50;;;;;;4987129;28;20106;-57
2021/01/21 11:07:21;;;;;;;10.68;2.67;;;5.80;90.50;;;;;;4984979;28;20034;-56
2021/01/21 11:09:47;;;;;;;9.07;2.85;;;5.80;90.50;;;;;;4983705;28;20026;-56
2021/01/21 11:12:15;;;;;;;5.50;1.98;;;5.80;90.40;;;;;;4982358;28;20037;-57
2021/01/21 11:14:40;;;;;;;5.97;2.38;;;5.80;90.40;;;;;;4972202;28;20045;-56
2021/01/21 11:17:06;;;;;;;7.88;2.90;;;5.80;90.40;;;;;;4987965;28;20023;-56
2021/01/21 11:19:31;;;;;;;8.90;2.72;;;5.90;90.40;;;;;;4986907;28;20463;-56
2021/01/21 11:21:57;;;;;;;6.90;2.67;;;5.90;90.40;;;;;;4987731;28;20085;-56
2021/01/21 11:24:22;;;;;;;8.07;2.30;;;5.90;90.30;;;;;;4976715;28;20050;-57
2021/01/21 11:26:48;;;;;;;4.63;2.53;;;5.90;90.30;;;;;;4970469;28;20441;-56
2021/01/21 11:29:13;;;;;;;9.38;2.55;;;5.90;90.30;;;;;;4980612;28;20389;-58
2021/01/21 11:31:39;;;;;;;4.40;1.85;;;6.00;90.30;;;;;;4990760;28;20034;-56
2021/01/21 11:34:04;;;;;;;5.90;2.20;;;6.00;90.30;;;;;;4990230;28;20114;-57
2021/01/21 11:36:30;;;;;;;9.48;3.40;;;6.00;90.30;;;;;;4971897;28;20430;-57
2021/01/21 11:38:55;;;;;;;7.88;2.70;;;6.00;90.20;;;;;;4988453;28;20030;-56
2021/01/21 11:41:21;;;;;;;4.03;2.00;;;6.00;90.20;;;;;;4985015;28;20049;-57
2021/01/21 11:43:46;;;;;;;6.32;2.20;;;6.10;90.20;;;;;;4988729;28;20449;-57
2021/01/21 11:46:12;;;;;;;5.25;2.20;;;6.10;90.20;;;;;;4989566;28;20038;-56
2021/01/21 11:48:37;;;;;;;5.78;2.30;;;6.20;90.20;;;;;;4981177;28;20061;-57
2021/01/21 11:51:03;;;;;;;5.13;2.42;;;6.10;90.10;;;;;;4987598;28;20030;-56
2021/01/21 11:53:29;;;;;;;5.35;2.38;;;6.10;90.10;;;;;;4983606;28;20042;-56
2021/01/21 11:55:54;;;;;;;7.68;2.20;;;6.10;90.10;;;;;;4982397;28;20038;-57
2021/01/21 11:58:20;;;;;;;7.97;2.90;;;6.20;90.10;;;;;;4990463;28;20018;-57
2021/01/21 12:00:45;;;;;;;4.90;1.92;;;6.40;90.10;;;;;;4959830;28;20039;-57
2021/01/21 12:03:11;;;;;;;4.97;1.95;;;6.20;90.00;;;;;;4989851;28;20022;-57
2021/01/21 12:05:36;;;;;;;4.28;2.33;;;6.20;90.00;;;;;;4969755;28;20030;-57
2021/01/21 12:08:02;;;;;;;6.55;1.98;;;6.20;90.00;;;;;;4981013;28;20031;-57
2021/01/21 12:10:27;;;;;;;4.38;2.30;;;6.20;90.00;;;;;;4984737;28;20031;-63
2021/01/21 12:12:53;;;;;;;5.90;2.50;;;6.20;90.00;;;;;;4985713;28;20031;-56
2021/01/21 12:15:18;;;;;;;3.17;1.98;;;6.20;90.00;;;;;;4972479;28;20394;-57
2021/01/21 12:18:14;;;;;;;4.30;1.88;;;6.30;90.00;;;;;;5054139;23;20053;-55
2021/01/21 12:20:40;;;;;;;5.00;1.70;;;6.30;90.00;;;;;;4896947;29;20047;-56
2021/01/21 12:23:06;;;;;;;2.75;1.58;;;6.30;89.80;;;;;;4940847;29;20046;-56
2021/01/21 12:25:31;;;;;;;3.03;1.52;;;6.40;89.50;;;;;;4939125;29;20078;-56
2021/01/21 12:27:57;;;;;;;4.70;2.20;;;6.40;88.80;;;;;;4947675;29;20102;-59
2021/01/21 12:30:23;;;;;;;4.78;1.88;;;6.50;88.50;;;;;;4940600;29;20387;-58
2021/01/21 12:32:48;;;;;;;6.18;2.47;;;6.60;88.40;;;;;;4934209;29;20145;-59
2021/01/21 12:35:14;;;;;;;6.65;2.00;;;6.70;88.10;;;;;;4943297;29;20034;-58
2021/01/21 12:37:40;;;;;;;3.90;1.95;;;6.70;88.10;;;;;;4940591;29;20035;-58
2021/01/21 12:40:06;;;;;;;4.82;2.10;;;6.80;87.80;;;;;;4927674;29;20503;-59
2021/01/21 12:42:31;;;;;;;5.97;2.10;;;6.80;87.60;;;;;;4931590;29;20027;-58
2021/01/21 12:44:57;;;;;;;4.22;1.95;;;6.80;87.50;;;;;;4930880;29;20112;-57
2021/01/21 12:47:22;;;;;;;4.47;2.25;;;6.80;87.80;;;;;;4926469;29;20132;-58
2021/01/21 12:49:48;;;;;;;3.67;2.15;;;6.80;87.80;;;;;;4936530;29;20042;-58
2021/01/21 12:52:13;;;;;;;3.58;1.88;;;6.80;87.70;;;;;;4935479;29;20106;-58
2021/01/21 12:54:39;;;;;;;3.30;1.85;;;6.80;87.70;;;;;;4941079;29;20519;-59
2021/01/21 12:57:05;;;;;;;6.55;1.95;;;6.80;87.70;;;;;;4921397;29;20503;-59